KCMI/CMI METAR and TAF weather

Enter ICAO airport designator
Station Type Date Time Source
KCMI METAR 2022/12/10 01:53 UTC NOAA

KCMI 100153Z 28008KT 6SM BR OVC004 05/04 A3014 RMK AO2 SLP212 T00500044


Station Type Date Time Source
KCMI Decoded METAR 2022/12/10 01:53 UTC NOAA

UNIV OF ILLINOIS-WILLARD, IL, United States (KCMI) 40-02N 088-16W 228M
Dec 09, 2022 - 08:53 PM EST / 2022.12.10 0153 UTC
Wind: from the W (280 degrees) at 9 MPH (8 KT):0
Visibility: 6 mile(s):0
Sky conditions: overcast
Weather: mist
Temperature: 41.0 F (5.0 C)
Dew Point: 39.9 F (4.4 C)
Relative Humidity: 95%
Pressure (altimeter): 30.14 in. Hg (1020 hPa)
ob: KCMI 100153Z 28008KT 6SM BR OVC004 05/04 A3014 RMK AO2 SLP212 T00500044
cycle: 2

Station Type Date Time Source
KCMI TAF 2022/12/10 02:34 UTC NOAA

TAF
AMD KCMI 100132Z 1002/1024 30007KT P6SM OVC004
FM100600 VRB05KT 3SM BR OVC003
FM101000 VRB04KT 2SM -DZ BR OVC006
FM101700 VRB03KT P6SM OVC011

Example: see airport list